sensor_id;sensor_type;location;lat;lon;timestamp;P1;durP1;ratioP1;P2;durP2;ratioP2
673;SDS011;319;48.764;9.174;2023-02-01T00:01:59;1.70;;;1.70;;
673;SDS011;319;48.764;9.174;2023-02-01T00:04:25;1.40;;;1.40;;
673;SDS011;319;48.764;9.174;2023-02-01T00:06:53;1.30;;;1.30;;
673;SDS011;319;48.764;9.174;2023-02-01T00:09:19;1.27;;;1.27;;
673;SDS011;319;48.764;9.174;2023-02-01T00:11:46;1.40;;;1.40;;
673;SDS011;319;48.764;9.174;2023-02-01T00:14:14;1.30;;;1.30;;
673;SDS011;319;48.764;9.174;2023-02-01T00:16:42;1.30;;;1.30;;
673;SDS011;319;48.764;9.174;2023-02-01T00:19:10;1.40;;;1.40;;
673;SDS011;319;48.764;9.174;2023-02-01T00:21:38;1.30;;;1.30;;
673;SDS011;319;48.764;9.174;2023-02-01T00:24:06;1.40;;;1.40;;
673;SDS011;319;48.764;9.174;2023-02-01T00:26:33;1.40;;;1.40;;
673;SDS011;319;48.764;9.174;2023-02-01T00:29:03;1.40;;;1.40;;
673;SDS011;319;48.764;9.174;2023-02-01T00:31:32;1.27;;;1.27;;
673;SDS011;319;48.764;9.174;2023-02-01T00:33:59;1.30;;;1.30;;
673;SDS011;319;48.764;9.174;2023-02-01T00:36:26;1.60;;;1.60;;
673;SDS011;319;48.764;9.174;2023-02-01T00:38:53;1.23;;;1.23;;
673;SDS011;319;48.764;9.174;2023-02-01T00:41:20;1.40;;;1.40;;
673;SDS011;319;48.764;9.174;2023-02-01T00:43:47;1.40;;;1.40;;
673;SDS011;319;48.764;9.174;2023-02-01T00:46:16;1.40;;;1.40;;
673;SDS011;319;48.764;9.174;2023-02-01T00:48:46;1.50;;;1.50;;
673;SDS011;319;48.764;9.174;2023-02-01T00:51:14;1.40;;;1.40;;
673;SDS011;319;48.764;9.174;2023-02-01T00:53:42;1.40;;;1.40;;
673;SDS011;319;48.764;9.174;2023-02-01T00:56:09;1.40;;;1.40;;
673;SDS011;319;48.764;9.174;2023-02-01T00:58:36;1.40;;;1.40;;
673;SDS011;319;48.764;9.174;2023-02-01T01:01:04;1.30;;;1.30;;
673;SDS011;319;48.764;9.174;2023-02-01T01:03:32;1.40;;;1.40;;
673;SDS011;319;48.764;9.174;2023-02-01T01:06:04;1.40;;;1.40;;
673;SDS011;319;48.764;9.174;2023-02-01T01:08:32;1.33;;;1.33;;
673;SDS011;319;48.764;9.174;2023-02-01T01:10:59;1.40;;;1.40;;
673;SDS011;319;48.764;9.174;2023-02-01T01:13:30;1.60;;;1.60;;
673;SDS011;319;48.764;9.174;2023-02-01T01:15:59;1.40;;;1.40;;
673;SDS011;319;48.764;9.174;2023-02-01T01:18:27;1.50;;;1.50;;
673;SDS011;319;48.764;9.174;2023-02-01T01:20:54;1.40;;;1.40;;
673;SDS011;319;48.764;9.174;2023-02-01T01:23:23;1.50;;;1.50;;
673;SDS011;319;48.764;9.174;2023-02-01T01:25:50;1.40;;;1.40;;
673;SDS011;319;48.764;9.174;2023-02-01T01:28:17;1.40;;;1.40;;
673;SDS011;319;48.764;9.174;2023-02-01T01:30:44;1.40;;;1.40;;
673;SDS011;319;48.764;9.174;2023-02-01T01:33:11;1.40;;;1.40;;
673;SDS011;319;48.764;9.174;2023-02-01T01:35:38;1.40;;;1.40;;
673;SDS011;319;48.764;9.174;2023-02-01T01:38:04;1.33;;;1.33;;
673;SDS011;319;48.764;9.174;2023-02-01T01:40:33;1.40;;;1.40;;
673;SDS011;319;48.764;9.174;2023-02-01T01:42:59;1.40;;;1.40;;
673;SDS011;319;48.764;9.174;2023-02-01T01:45:27;1.40;;;1.40;;
673;SDS011;319;48.764;9.174;2023-02-01T01:47:56;1.30;;;1.30;;
673;SDS011;319;48.764;9.174;2023-02-01T01:50:25;1.40;;;1.40;;
673;SDS011;319;48.764;9.174;2023-02-01T01:52:55;1.30;;;1.30;;
673;SDS011;319;48.764;9.174;2023-02-01T01:55:25;1.43;;;1.43;;
673;SDS011;319;48.764;9.174;2023-02-01T01:57:56;1.40;;;1.40;;
673;SDS011;319;48.764;9.174;2023-02-01T02:00:26;1.40;;;1.40;;
673;SDS011;319;48.764;9.174;2023-02-01T02:02:54;1.40;;;1.40;;
673;SDS011;319;48.764;9.174;2023-02-01T02:05:24;1.40;;;1.40;;
673;SDS011;319;48.764;9.174;2023-02-01T02:07:53;1.40;;;1.40;;
673;SDS011;319;48.764;9.174;2023-02-01T02:10:24;1.40;;;1.40;;
673;SDS011;319;48.764;9.174;2023-02-01T02:13:13;1.30;;;1.30;;
673;SDS011;319;48.764;9.174;2023-02-01T02:15:41;1.30;;;1.30;;
673;SDS011;319;48.764;9.174;2023-02-01T02:18:13;1.30;;;1.30;;
673;SDS011;319;48.764;9.174;2023-02-01T02:26:55;1.30;;;1.30;;
673;SDS011;319;48.764;9.174;2023-02-01T02:30:02;1.30;;;1.30;;
673;SDS011;319;48.764;9.174;2023-02-01T02:35:56;1.30;;;1.30;;
673;SDS011;319;48.764;9.174;2023-02-01T02:38:29;1.30;;;1.30;;
673;SDS011;319;48.764;9.174;2023-02-01T02:41:02;1.30;;;1.30;;
673;SDS011;319;48.764;9.174;2023-02-01T02:43:35;1.30;;;1.30;;
673;SDS011;319;48.764;9.174;2023-02-01T02:46:31;1.40;;;1.40;;
673;SDS011;319;48.764;9.174;2023-02-01T02:49:26;1.40;;;1.40;;
673;SDS011;319;48.764;9.174;2023-02-01T02:52:02;1.40;;;1.40;;
673;SDS011;319;48.764;9.174;2023-02-01T02:54:48;1.30;;;1.30;;
673;SDS011;319;48.764;9.174;2023-02-01T02:57:20;1.40;;;1.40;;
673;SDS011;319;48.764;9.174;2023-02-01T03:00:09;1.30;;;1.30;;
673;SDS011;319;48.764;9.174;2023-02-01T03:02:55;1.30;;;1.30;;
673;SDS011;319;48.764;9.174;2023-02-01T03:05:40;1.10;;;1.10;;
673;SDS011;319;48.764;9.174;2023-02-01T03:08:11;1.37;;;1.37;;
673;SDS011;319;48.764;9.174;2023-02-01T03:10:44;1.30;;;1.30;;
673;SDS011;319;48.764;9.174;2023-02-01T03:13:18;1.40;;;1.40;;
673;SDS011;319;48.764;9.174;2023-02-01T03:15:51;1.40;;;1.40;;
673;SDS011;319;48.764;9.174;2023-02-01T03:18:23;1.30;;;1.30;;
673;SDS011;319;48.764;9.174;2023-02-01T03:20:54;1.40;;;1.40;;
673;SDS011;319;48.764;9.174;2023-02-01T03:23:26;1.30;;;1.30;;
673;SDS011;319;48.764;9.174;2023-02-01T03:25:56;1.20;;;1.20;;
673;SDS011;319;48.764;9.174;2023-02-01T03:28:26;1.27;;;1.27;;
673;SDS011;319;48.764;9.174;2023-02-01T03:30:56;1.40;;;1.40;;
673;SDS011;319;48.764;9.174;2023-02-01T03:33:24;1.30;;;1.30;;
673;SDS011;319;48.764;9.174;2023-02-01T03:35:57;1.23;;;1.23;;
673;SDS011;319;48.764;9.174;2023-02-01T03:38:33;1.40;;;1.40;;
673;SDS011;319;48.764;9.174;2023-02-01T03:41:07;1.30;;;1.30;;
673;SDS011;319;48.764;9.174;2023-02-01T03:43:38;1.50;;;1.50;;
673;SDS011;319;48.764;9.174;2023-02-01T03:46:15;1.50;;;1.50;;
673;SDS011;319;48.764;9.174;2023-02-01T03:48:48;1.40;;;1.40;;
673;SDS011;319;48.764;9.174;2023-02-01T03:51:17;1.37;;;1.37;;
673;SDS011;319;48.764;9.174;2023-02-01T03:53:46;1.30;;;1.30;;
673;SDS011;319;48.764;9.174;2023-02-01T03:56:15;1.30;;;1.30;;
673;SDS011;319;48.764;9.174;2023-02-01T03:58:44;1.30;;;1.30;;
673;SDS011;319;48.764;9.174;2023-02-01T04:01:23;1.20;;;1.20;;
673;SDS011;319;48.764;9.174;2023-02-01T04:03:51;1.30;;;1.30;;
673;SDS011;319;48.764;9.174;2023-02-01T04:06:18;1.30;;;1.30;;
673;SDS011;319;48.764;9.174;2023-02-01T04:08:44;1.40;;;1.40;;
673;SDS011;319;48.764;9.174;2023-02-01T04:11:13;1.50;;;1.50;;
673;SDS011;319;48.764;9.174;2023-02-01T04:13:39;1.30;;;1.30;;
673;SDS011;319;48.764;9.174;2023-02-01T04:16:06;1.30;;;1.30;;
673;SDS011;319;48.764;9.174;2023-02-01T04:18:33;1.40;;;1.40;;
673;SDS011;319;48.764;9.174;2023-02-01T04:21:00;1.40;;;1.40;;
673;SDS011;319;48.764;9.174;2023-02-01T04:23:27;1.30;;;1.30;;
673;SDS011;319;48.764;9.174;2023-02-01T04:25:59;1.30;;;1.30;;
673;SDS011;319;48.764;9.174;2023-02-01T04:28:27;1.30;;;1.30;;
673;SDS011;319;48.764;9.174;2023-02-01T04:30:54;1.40;;;1.40;;
673;SDS011;319;48.764;9.174;2023-02-01T04:33:21;1.50;;;1.50;;
673;SDS011;319;48.764;9.174;2023-02-01T04:35:48;1.40;;;1.40;;
673;SDS011;319;48.764;9.174;2023-02-01T04:38:15;1.20;;;1.20;;
673;SDS011;319;48.764;9.174;2023-02-01T04:40:42;1.30;;;1.30;;
673;SDS011;319;48.764;9.174;2023-02-01T04:43:10;1.40;;;1.40;;
673;SDS011;319;48.764;9.174;2023-02-01T04:45:37;1.30;;;1.30;;
673;SDS011;319;48.764;9.174;2023-02-01T04:48:04;1.40;;;1.40;;
673;SDS011;319;48.764;9.174;2023-02-01T04:50:31;1.30;;;1.30;;
673;SDS011;319;48.764;9.174;2023-02-01T04:52:57;1.40;;;1.40;;
673;SDS011;319;48.764;9.174;2023-02-01T04:55:24;1.30;;;1.30;;
673;SDS011;319;48.764;9.174;2023-02-01T04:57:51;1.30;;;1.30;;
673;SDS011;319;48.764;9.174;2023-02-01T05:00:19;1.40;;;1.40;;
673;SDS011;319;48.764;9.174;2023-02-01T05:02:46;1.30;;;1.30;;
673;SDS011;319;48.764;9.174;2023-02-01T05:05:13;1.30;;;1.30;;
673;SDS011;319;48.764;9.174;2023-02-01T05:07:40;1.30;;;1.30;;
673;SDS011;319;48.764;9.174;2023-02-01T05:10:08;1.40;;;1.40;;
673;SDS011;319;48.764;9.174;2023-02-01T05:12:35;1.47;;;1.47;;
673;SDS011;319;48.764;9.174;2023-02-01T05:15:21;1.50;;;1.50;;
673;SDS011;319;48.764;9.174;2023-02-01T05:17:49;1.40;;;1.40;;
673;SDS011;319;48.764;9.174;2023-02-01T05:20:15;1.30;;;1.30;;
673;SDS011;319;48.764;9.174;2023-02-01T05:22:42;1.30;;;1.30;;
673;SDS011;319;48.764;9.174;2023-02-01T05:25:09;1.40;;;1.40;;
673;SDS011;319;48.764;9.174;2023-02-01T05:27:36;1.30;;;1.30;;
673;SDS011;319;48.764;9.174;2023-02-01T05:30:03;2.27;;;2.17;;
673;SDS011;319;48.764;9.174;2023-02-01T05:32:32;1.30;;;1.30;;
673;SDS011;319;48.764;9.174;2023-02-01T05:34:59;1.30;;;1.30;;
673;SDS011;319;48.764;9.174;2023-02-01T05:37:26;1.40;;;1.40;;
673;SDS011;319;48.764;9.174;2023-02-01T05:39:53;1.40;;;1.40;;
673;SDS011;319;48.764;9.174;2023-02-01T05:42:20;1.40;;;1.40;;
673;SDS011;319;48.764;9.174;2023-02-01T05:44:47;1.30;;;1.30;;
673;SDS011;319;48.764;9.174;2023-02-01T05:47:13;1.50;;;1.50;;
673;SDS011;319;48.764;9.174;2023-02-01T05:49:41;1.50;;;1.50;;
673;SDS011;319;48.764;9.174;2023-02-01T05:52:08;1.50;;;1.50;;
673;SDS011;319;48.764;9.174;2023-02-01T05:54:35;1.40;;;1.40;;
673;SDS011;319;48.764;9.174;2023-02-01T05:57:02;1.40;;;1.40;;
673;SDS011;319;48.764;9.174;2023-02-01T05:59:28;1.30;;;1.30;;
673;SDS011;319;48.764;9.174;2023-02-01T06:01:55;1.40;;;1.40;;
673;SDS011;319;48.764;9.174;2023-02-01T06:04:22;1.30;;;1.30;;
673;SDS011;319;48.764;9.174;2023-02-01T06:06:50;1.20;;;1.20;;
673;SDS011;319;48.764;9.174;2023-02-01T06:09:17;1.40;;;1.40;;
673;SDS011;319;48.764;9.174;2023-02-01T06:11:44;1.40;;;1.40;;
673;SDS011;319;48.764;9.174;2023-02-01T06:14:11;1.37;;;1.37;;
673;SDS011;319;48.764;9.174;2023-02-01T06:16:37;1.40;;;1.40;;
673;SDS011;319;48.764;9.174;2023-02-01T06:19:04;1.40;;;1.40;;
673;SDS011;319;48.764;9.174;2023-02-01T06:21:31;1.27;;;1.27;;
673;SDS011;319;48.764;9.174;2023-02-01T06:23:59;1.40;;;1.40;;
673;SDS011;319;48.764;9.174;2023-02-01T06:26:26;1.40;;;1.40;;
673;SDS011;319;48.764;9.174;2023-02-01T06:28:54;1.30;;;1.30;;
673;SDS011;319;48.764;9.174;2023-02-01T06:31:21;1.40;;;1.40;;
673;SDS011;319;48.764;9.174;2023-02-01T06:33:50;1.30;;;1.30;;
673;SDS011;319;48.764;9.174;2023-02-01T06:36:18;1.40;;;1.40;;
673;SDS011;319;48.764;9.174;2023-02-01T06:38:46;1.40;;;1.40;;
673;SDS011;319;48.764;9.174;2023-02-01T06:41:14;1.30;;;1.30;;
673;SDS011;319;48.764;9.174;2023-02-01T06:43:41;1.40;;;1.40;;
673;SDS011;319;48.764;9.174;2023-02-01T06:46:09;1.40;;;1.40;;
673;SDS011;319;48.764;9.174;2023-02-01T06:48:38;1.40;;;1.40;;
673;SDS011;319;48.764;9.174;2023-02-01T06:51:06;1.30;;;1.30;;
673;SDS011;319;48.764;9.174;2023-02-01T06:53:46;1.30;;;1.30;;
673;SDS011;319;48.764;9.174;2023-02-01T06:56:14;1.40;;;1.40;;
673;SDS011;319;48.764;9.174;2023-02-01T06:58:41;1.20;;;1.20;;
673;SDS011;319;48.764;9.174;2023-02-01T07:01:08;1.27;;;1.27;;
673;SDS011;319;48.764;9.174;2023-02-01T07:03:36;1.30;;;1.30;;
673;SDS011;319;48.764;9.174;2023-02-01T07:06:03;1.30;;;1.30;;
673;SDS011;319;48.764;9.174;2023-02-01T07:08:32;1.37;;;1.37;;
673;SDS011;319;48.764;9.174;2023-02-01T07:11:01;1.40;;;1.40;;
673;SDS011;319;48.764;9.174;2023-02-01T07:13:30;1.40;;;1.40;;
673;SDS011;319;48.764;9.174;2023-02-01T07:15:58;1.40;;;1.40;;
673;SDS011;319;48.764;9.174;2023-02-01T07:18:25;1.40;;;1.40;;
673;SDS011;319;48.764;9.174;2023-02-01T07:20:53;1.30;;;1.30;;
673;SDS011;319;48.764;9.174;2023-02-01T07:23:19;1.30;;;1.30;;
673;SDS011;319;48.764;9.174;2023-02-01T07:25:46;1.40;;;1.40;;
673;SDS011;319;48.764;9.174;2023-02-01T07:28:13;1.40;;;1.40;;
673;SDS011;319;48.764;9.174;2023-02-01T07:30:41;1.40;;;1.40;;
673;SDS011;319;48.764;9.174;2023-02-01T07:33:08;1.40;;;1.40;;
673;SDS011;319;48.764;9.174;2023-02-01T07:35:35;1.40;;;1.40;;
673;SDS011;319;48.764;9.174;2023-02-01T07:38:16;1.30;;;1.30;;
673;SDS011;319;48.764;9.174;2023-02-01T07:40:44;1.40;;;1.40;;
673;SDS011;319;48.764;9.174;2023-02-01T07:43:11;6.23;;;5.80;;
673;SDS011;319;48.764;9.174;2023-02-01T07:45:38;1.30;;;1.30;;
673;SDS011;319;48.764;9.174;2023-02-01T07:48:06;1.40;;;1.40;;
673;SDS011;319;48.764;9.174;2023-02-01T07:50:33;1.40;;;1.40;;
673;SDS011;319;48.764;9.174;2023-02-01T07:53:00;1.30;;;1.30;;
673;SDS011;319;48.764;9.174;2023-02-01T07:55:27;1.40;;;1.40;;
673;SDS011;319;48.764;9.174;2023-02-01T07:57:56;1.47;;;1.47;;
673;SDS011;319;48.764;9.174;2023-02-01T08:00:23;1.30;;;1.30;;
673;SDS011;319;48.764;9.174;2023-02-01T08:03:09;1.40;;;1.40;;
673;SDS011;319;48.764;9.174;2023-02-01T08:05:35;1.37;;;1.37;;
673;SDS011;319;48.764;9.174;2023-02-01T08:08:03;1.40;;;1.40;;
673;SDS011;319;48.764;9.174;2023-02-01T08:10:30;1.40;;;1.40;;
673;SDS011;319;48.764;9.174;2023-02-01T08:12:57;1.30;;;1.30;;
673;SDS011;319;48.764;9.174;2023-02-01T08:15:27;1.30;;;1.30;;
673;SDS011;319;48.764;9.174;2023-02-01T08:17:59;1.30;;;1.30;;
673;SDS011;319;48.764;9.174;2023-02-01T08:20:28;1.27;;;1.27;;
673;SDS011;319;48.764;9.174;2023-02-01T08:22:56;1.30;;;1.30;;
673;SDS011;319;48.764;9.174;2023-02-01T08:25:23;1.30;;;1.30;;
673;SDS011;319;48.764;9.174;2023-02-01T08:27:50;1.50;;;1.50;;
673;SDS011;319;48.764;9.174;2023-02-01T08:30:18;1.30;;;1.30;;
673;SDS011;319;48.764;9.174;2023-02-01T08:32:45;1.30;;;1.30;;
673;SDS011;319;48.764;9.174;2023-02-01T08:35:12;1.30;;;1.30;;
673;SDS011;319;48.764;9.174;2023-02-01T08:37:42;1.40;;;1.40;;
673;SDS011;319;48.764;9.174;2023-02-01T08:40:09;1.23;;;1.23;;
673;SDS011;319;48.764;9.174;2023-02-01T08:42:38;1.30;;;1.30;;
673;SDS011;319;48.764;9.174;2023-02-01T08:45:17;1.30;;;1.30;;
673;SDS011;319;48.764;9.174;2023-02-01T08:47:45;1.27;;;1.27;;
673;SDS011;319;48.764;9.174;2023-02-01T08:50:13;1.60;;;1.60;;
673;SDS011;319;48.764;9.174;2023-02-01T08:52:41;2.57;;;2.57;;
673;SDS011;319;48.764;9.174;2023-02-01T08:55:09;5.27;;;5.17;;
673;SDS011;319;48.764;9.174;2023-02-01T08:57:37;5.27;;;5.17;;
673;SDS011;319;48.764;9.174;2023-02-01T09:00:05;1.20;;;1.20;;
673;SDS011;319;48.764;9.174;2023-02-01T09:02:33;1.10;;;1.10;;
673;SDS011;319;48.764;9.174;2023-02-01T09:05:00;7.20;;;7.00;;
673;SDS011;319;48.764;9.174;2023-02-01T09:07:27;6.60;;;6.50;;
673;SDS011;319;48.764;9.174;2023-02-01T09:09:55;7.80;;;7.60;;
673;SDS011;319;48.764;9.174;2023-02-01T09:12:25;8.07;;;7.87;;
673;SDS011;319;48.764;9.174;2023-02-01T09:14:52;7.27;;;7.07;;
673;SDS011;319;48.764;9.174;2023-02-01T09:17:19;7.07;;;6.87;;
673;SDS011;319;48.764;9.174;2023-02-01T09:19:46;4.37;;;4.27;;
673;SDS011;319;48.764;9.174;2023-02-01T09:22:13;5.23;;;5.13;;
673;SDS011;319;48.764;9.174;2023-02-01T09:24:40;6.33;;;6.23;;
673;SDS011;319;48.764;9.174;2023-02-01T09:27:09;8.80;;;8.60;;
673;SDS011;319;48.764;9.174;2023-02-01T09:29:36;8.00;;;7.80;;
673;SDS011;319;48.764;9.174;2023-02-01T09:32:02;8.90;;;8.70;;
673;SDS011;319;48.764;9.174;2023-02-01T09:34:30;8.80;;;8.60;;
673;SDS011;319;48.764;9.174;2023-02-01T09:36:57;9.40;;;9.20;;
673;SDS011;319;48.764;9.174;2023-02-01T09:39:23;8.43;;;8.23;;
673;SDS011;319;48.764;9.174;2023-02-01T09:41:52;8.90;;;8.70;;
673;SDS011;319;48.764;9.174;2023-02-01T09:44:29;6.67;;;6.50;;
673;SDS011;319;48.764;9.174;2023-02-01T09:47:10;8.00;;;7.80;;
673;SDS011;319;48.764;9.174;2023-02-01T09:49:39;11.90;;;11.60;;
673;SDS011;319;48.764;9.174;2023-02-01T09:52:15;11.83;;;11.53;;
673;SDS011;319;48.764;9.174;2023-02-01T09:54:46;9.80;;;9.60;;
673;SDS011;319;48.764;9.174;2023-02-01T09:57:19;10.80;;;10.50;;
673;SDS011;319;48.764;9.174;2023-02-01T09:59:54;12.33;;;12.03;;
673;SDS011;319;48.764;9.174;2023-02-01T10:02:26;10.87;;;10.57;;
673;SDS011;319;48.764;9.174;2023-02-01T10:04:55;10.70;;;10.40;;
673;SDS011;319;48.764;9.174;2023-02-01T10:07:26;9.73;;;9.53;;
673;SDS011;319;48.764;9.174;2023-02-01T10:09:59;11.90;;;11.60;;
673;SDS011;319;48.764;9.174;2023-02-01T10:12:36;11.60;;;11.30;;
673;SDS011;319;48.764;9.174;2023-02-01T10:15:21;10.87;;;10.57;;
673;SDS011;319;48.764;9.174;2023-02-01T10:18:00;11.07;;;10.77;;
673;SDS011;319;48.764;9.174;2023-02-01T10:20:43;10.40;;;10.10;;
673;SDS011;319;48.764;9.174;2023-02-01T10:23:23;10.90;;;10.60;;
673;SDS011;319;48.764;9.174;2023-02-01T10:26:08;9.83;;;9.63;;
673;SDS011;319;48.764;9.174;2023-02-01T10:28:43;12.00;;;11.70;;
673;SDS011;319;48.764;9.174;2023-02-01T10:31:13;11.70;;;11.40;;
673;SDS011;319;48.764;9.174;2023-02-01T10:33:42;11.00;;;10.70;;
673;SDS011;319;48.764;9.174;2023-02-01T10:36:13;11.70;;;11.40;;
673;SDS011;319;48.764;9.174;2023-02-01T10:38:43;11.30;;;11.00;;
673;SDS011;319;48.764;9.174;2023-02-01T10:41:11;11.23;;;10.93;;
673;SDS011;319;48.764;9.174;2023-02-01T10:43:40;11.00;;;10.70;;
673;SDS011;319;48.764;9.174;2023-02-01T10:46:08;11.57;;;11.27;;
673;SDS011;319;48.764;9.174;2023-02-01T10:48:36;12.23;;;11.93;;
673;SDS011;319;48.764;9.174;2023-02-01T10:51:06;13.60;;;13.20;;
673;SDS011;319;48.764;9.174;2023-02-01T10:53:41;12.40;;;12.10;;
673;SDS011;319;48.764;9.174;2023-02-01T10:56:18;13.40;;;13.03;;
673;SDS011;319;48.764;9.174;2023-02-01T10:59:04;12.30;;;12.00;;
673;SDS011;319;48.764;9.174;2023-02-01T11:01:48;13.40;;;13.00;;
673;SDS011;319;48.764;9.174;2023-02-01T11:04:18;13.03;;;12.73;;
673;SDS011;319;48.764;9.174;2023-02-01T11:06:48;12.03;;;11.73;;
673;SDS011;319;48.764;9.174;2023-02-01T11:09:19;12.40;;;12.10;;
673;SDS011;319;48.764;9.174;2023-02-01T11:11:53;13.47;;;13.07;;
673;SDS011;319;48.764;9.174;2023-02-01T11:14:32;12.70;;;12.40;;
673;SDS011;319;48.764;9.174;2023-02-01T11:17:02;12.77;;;12.47;;
673;SDS011;319;48.764;9.174;2023-02-01T11:19:45;13.00;;;12.70;;
673;SDS011;319;48.764;9.174;2023-02-01T11:22:12;12.80;;;12.50;;
673;SDS011;319;48.764;9.174;2023-02-01T11:24:41;13.07;;;12.77;;
673;SDS011;319;48.764;9.174;2023-02-01T11:27:12;12.87;;;12.57;;
673;SDS011;319;48.764;9.174;2023-02-01T11:29:43;12.57;;;12.27;;
673;SDS011;319;48.764;9.174;2023-02-01T11:32:11;13.93;;;13.53;;
673;SDS011;319;48.764;9.174;2023-02-01T11:34:41;13.13;;;12.83;;
673;SDS011;319;48.764;9.174;2023-02-01T11:37:14;13.00;;;12.70;;
673;SDS011;319;48.764;9.174;2023-02-01T11:39:45;12.57;;;12.27;;
673;SDS011;319;48.764;9.174;2023-02-01T11:42:20;13.57;;;13.17;;
673;SDS011;319;48.764;9.174;2023-02-01T11:44:47;13.00;;;12.70;;
673;SDS011;319;48.764;9.174;2023-02-01T11:47:22;13.13;;;12.83;;
673;SDS011;319;48.764;9.174;2023-02-01T11:49:52;12.70;;;12.40;;
673;SDS011;319;48.764;9.174;2023-02-01T11:52:25;13.40;;;13.00;;
673;SDS011;319;48.764;9.174;2023-02-01T11:55:12;13.40;;;13.00;;
673;SDS011;319;48.764;9.174;2023-02-01T11:57:48;13.07;;;12.77;;
673;SDS011;319;48.764;9.174;2023-02-01T12:00:35;13.03;;;12.73;;
673;SDS011;319;48.764;9.174;2023-02-01T12:03:18;12.60;;;12.30;;
673;SDS011;319;48.764;9.174;2023-02-01T12:06:13;13.23;;;12.90;;
673;SDS011;319;48.764;9.174;2023-02-01T12:08:54;12.60;;;12.30;;
673;SDS011;319;48.764;9.174;2023-02-01T12:11:41;13.80;;;13.40;;
673;SDS011;319;48.764;9.174;2023-02-01T12:14:23;14.30;;;13.90;;
673;SDS011;319;48.764;9.174;2023-02-01T12:17:03;14.10;;;13.70;;
673;SDS011;319;48.764;9.174;2023-02-01T12:19:47;12.90;;;12.60;;
673;SDS011;319;48.764;9.174;2023-02-01T12:22:32;14.40;;;14.00;;
673;SDS011;319;48.764;9.174;2023-02-01T12:25:14;13.93;;;13.53;;
673;SDS011;319;48.764;9.174;2023-02-01T12:28:20;13.30;;;13.00;;
673;SDS011;319;48.764;9.174;2023-02-01T12:31:14;12.80;;;12.50;;
673;SDS011;319;48.764;9.174;2023-02-01T12:33:49;13.80;;;13.40;;
673;SDS011;319;48.764;9.174;2023-02-01T12:36:26;14.40;;;14.00;;
673;SDS011;319;48.764;9.174;2023-02-01T12:39:01;12.80;;;12.50;;
673;SDS011;319;48.764;9.174;2023-02-01T12:44:32;14.60;;;14.20;;
673;SDS011;319;48.764;9.174;2023-02-01T12:47:06;14.03;;;13.63;;
673;SDS011;319;48.764;9.174;2023-02-01T12:49:50;12.80;;;12.50;;
673;SDS011;319;48.764;9.174;2023-02-01T12:52:42;14.20;;;13.80;;
673;SDS011;319;48.764;9.174;2023-02-01T12:55:15;12.63;;;12.33;;
673;SDS011;319;48.764;9.174;2023-02-01T12:57:48;14.37;;;13.97;;
673;SDS011;319;48.764;9.174;2023-02-01T13:00:21;12.20;;;11.90;;
673;SDS011;319;48.764;9.174;2023-02-01T13:02:54;13.70;;;13.30;;
673;SDS011;319;48.764;9.174;2023-02-01T13:05:27;14.00;;;13.60;;
673;SDS011;319;48.764;9.174;2023-02-01T13:08:01;12.03;;;11.73;;
673;SDS011;319;48.764;9.174;2023-02-01T13:10:34;14.50;;;14.10;;
673;SDS011;319;48.764;9.174;2023-02-01T13:13:10;13.27;;;12.97;;
673;SDS011;319;48.764;9.174;2023-02-01T13:15:43;13.87;;;13.47;;
673;SDS011;319;48.764;9.174;2023-02-01T13:18:20;12.30;;;12.00;;
673;SDS011;319;48.764;9.174;2023-02-01T13:20:53;14.20;;;13.80;;
673;SDS011;319;48.764;9.174;2023-02-01T13:23:28;12.20;;;11.90;;
673;SDS011;319;48.764;9.174;2023-02-01T13:26:00;14.60;;;14.20;;
673;SDS011;319;48.764;9.174;2023-02-01T13:28:35;12.73;;;12.43;;
673;SDS011;319;48.764;9.174;2023-02-01T13:31:15;14.10;;;13.70;;
673;SDS011;319;48.764;9.174;2023-02-01T13:33:56;14.10;;;13.70;;
673;SDS011;319;48.764;9.174;2023-02-01T13:36:53;14.20;;;13.80;;
673;SDS011;319;48.764;9.174;2023-02-01T13:39:34;12.30;;;12.00;;
673;SDS011;319;48.764;9.174;2023-02-01T13:42:15;14.20;;;13.80;;
673;SDS011;319;48.764;9.174;2023-02-01T13:44:45;14.00;;;13.60;;
673;SDS011;319;48.764;9.174;2023-02-01T13:47:18;13.83;;;13.43;;
673;SDS011;319;48.764;9.174;2023-02-01T13:49:50;12.40;;;12.10;;
673;SDS011;319;48.764;9.174;2023-02-01T13:52:27;12.47;;;12.17;;
673;SDS011;319;48.764;9.174;2023-02-01T13:55:14;13.70;;;13.30;;
673;SDS011;319;48.764;9.174;2023-02-01T13:57:52;13.57;;;13.20;;
673;SDS011;319;48.764;9.174;2023-02-01T14:00:28;12.83;;;12.53;;
673;SDS011;319;48.764;9.174;2023-02-01T14:06:02;13.30;;;13.00;;
673;SDS011;319;48.764;9.174;2023-02-01T14:08:41;12.50;;;12.20;;
673;SDS011;319;48.764;9.174;2023-02-01T14:11:34;14.00;;;13.60;;
673;SDS011;319;48.764;9.174;2023-02-01T14:14:37;12.97;;;12.67;;
673;SDS011;319;48.764;9.174;2023-02-01T14:23:25;13.60;;;13.20;;
673;SDS011;319;48.764;9.174;2023-02-01T14:26:03;12.23;;;11.93;;
673;SDS011;319;48.764;9.174;2023-02-01T14:28:33;12.57;;;12.27;;
673;SDS011;319;48.764;9.174;2023-02-01T14:31:14;13.23;;;12.93;;
673;SDS011;319;48.764;9.174;2023-02-01T14:34:01;11.40;;;11.10;;
673;SDS011;319;48.764;9.174;2023-02-01T14:36:42;14.00;;;13.60;;
673;SDS011;319;48.764;9.174;2023-02-01T14:39:21;11.93;;;11.63;;
673;SDS011;319;48.764;9.174;2023-02-01T14:41:55;13.30;;;13.00;;
673;SDS011;319;48.764;9.174;2023-02-01T14:44:35;13.00;;;12.70;;
673;SDS011;319;48.764;9.174;2023-02-01T14:53:20;12.70;;;12.40;;
673;SDS011;319;48.764;9.174;2023-02-01T14:55:51;12.30;;;12.00;;
673;SDS011;319;48.764;9.174;2023-02-01T14:58:29;11.70;;;11.40;;
673;SDS011;319;48.764;9.174;2023-02-01T15:01:03;12.87;;;12.57;;
673;SDS011;319;48.764;9.174;2023-02-01T15:06:26;12.70;;;12.40;;
673;SDS011;319;48.764;9.174;2023-02-01T15:09:03;11.63;;;11.33;;
673;SDS011;319;48.764;9.174;2023-02-01T15:14:23;12.50;;;12.20;;
673;SDS011;319;48.764;9.174;2023-02-01T15:16:51;13.10;;;12.80;;
673;SDS011;319;48.764;9.174;2023-02-01T15:19:20;9.43;;;9.23;;
673;SDS011;319;48.764;9.174;2023-02-01T15:21:50;9.23;;;9.03;;
673;SDS011;319;48.764;9.174;2023-02-01T15:24:19;11.10;;;10.80;;
673;SDS011;319;48.764;9.174;2023-02-01T15:26:47;12.20;;;11.90;;
673;SDS011;319;48.764;9.174;2023-02-01T15:29:15;10.00;;;9.80;;
673;SDS011;319;48.764;9.174;2023-02-01T15:31:43;10.70;;;10.40;;
673;SDS011;319;48.764;9.174;2023-02-01T15:34:11;12.30;;;12.00;;
673;SDS011;319;48.764;9.174;2023-02-01T15:36:39;12.10;;;11.80;;
673;SDS011;319;48.764;9.174;2023-02-01T15:41:51;10.90;;;10.60;;
673;SDS011;319;48.764;9.174;2023-02-01T15:44:23;10.67;;;10.37;;
673;SDS011;319;48.764;9.174;2023-02-01T15:46:57;10.60;;;10.30;;
673;SDS011;319;48.764;9.174;2023-02-01T15:49:26;9.10;;;8.90;;
673;SDS011;319;48.764;9.174;2023-02-01T15:51:56;11.30;;;11.00;;
673;SDS011;319;48.764;9.174;2023-02-01T15:54:26;6.50;;;6.40;;
673;SDS011;319;48.764;9.174;2023-02-01T15:56:56;5.37;;;5.27;;
673;SDS011;319;48.764;9.174;2023-02-01T15:59:28;4.90;;;4.80;;
673;SDS011;319;48.764;9.174;2023-02-01T16:01:58;6.50;;;6.40;;
673;SDS011;319;48.764;9.174;2023-02-01T16:04:25;5.60;;;5.50;;
673;SDS011;319;48.764;9.174;2023-02-01T16:06:55;7.83;;;7.63;;
673;SDS011;319;48.764;9.174;2023-02-01T16:09:24;8.00;;;7.80;;
673;SDS011;319;48.764;9.174;2023-02-01T16:12:04;6.73;;;6.60;;
673;SDS011;319;48.764;9.174;2023-02-01T16:14:52;6.10;;;6.00;;
673;SDS011;319;48.764;9.174;2023-02-01T16:17:19;8.20;;;8.00;;
673;SDS011;319;48.764;9.174;2023-02-01T16:19:46;6.73;;;6.60;;
673;SDS011;319;48.764;9.174;2023-02-01T16:22:12;6.43;;;6.33;;
673;SDS011;319;48.764;9.174;2023-02-01T16:24:40;6.37;;;6.27;;
673;SDS011;319;48.764;9.174;2023-02-01T16:27:07;7.00;;;6.80;;
673;SDS011;319;48.764;9.174;2023-02-01T16:29:34;7.60;;;7.40;;
673;SDS011;319;48.764;9.174;2023-02-01T16:32:01;6.63;;;6.50;;
673;SDS011;319;48.764;9.174;2023-02-01T16:34:28;6.80;;;6.60;;
673;SDS011;319;48.764;9.174;2023-02-01T16:36:55;6.50;;;6.40;;
673;SDS011;319;48.764;9.174;2023-02-01T16:39:22;5.87;;;5.77;;